createdAt,value
2022-09-07T00:01:08.634Z,54.98
2022-09-07T00:03:36.981Z,55.14
2022-09-07T00:06:08.080Z,55.08
2022-09-07T00:08:38.299Z,55.33
2022-09-07T00:11:12.691Z,55.28
2022-09-07T00:13:42.213Z,55.50
2022-09-07T00:16:15.232Z,55.55
2022-09-07T00:18:46.022Z,55.39
2022-09-07T00:21:17.377Z,55.60
2022-09-07T00:23:46.106Z,55.61
2022-09-07T00:26:20.446Z,55.74
2022-09-07T00:28:49.303Z,55.77
2022-09-07T00:31:21.185Z,56.03
2022-09-07T00:33:51.382Z,55.74
2022-09-07T00:36:21.589Z,55.80
2022-09-07T00:38:49.737Z,55.98
2022-09-07T00:41:19.719Z,56.03
2022-09-07T00:43:50.726Z,56.00
2022-09-07T00:46:20.524Z,56.08
2022-09-07T00:49:13.028Z,56.10
2022-09-07T00:51:53.666Z,56.16
2022-09-07T00:54:38.951Z,56.33
2022-09-07T00:57:07.423Z,56.25
2022-09-07T00:59:42.654Z,56.43
2022-09-07T01:02:12.827Z,56.35
2022-09-07T01:04:41.271Z,56.63
2022-09-07T01:07:09.167Z,56.62
2022-09-07T01:09:39.357Z,56.72
2022-09-07T01:12:08.794Z,56.80
2022-09-07T01:14:43.190Z,56.71
2022-09-07T01:17:42.437Z,56.72
2022-09-07T01:20:50.645Z,56.59
2022-09-07T01:23:53.099Z,56.78
2022-09-07T01:27:03.359Z,56.68
2022-09-07T01:29:57.048Z,56.68
2022-09-07T01:32:47.591Z,56.95
2022-09-07T01:35:28.772Z,56.80
2022-09-07T01:38:03.634Z,56.95
2022-09-07T01:40:54.882Z,56.96
2022-09-07T01:43:32.358Z,57.05
2022-09-07T01:46:03.608Z,57.12
2022-09-07T01:48:33.878Z,57.07
2022-09-07T01:51:04.427Z,57.11
2022-09-07T01:54:03.709Z,57.20
2022-09-07T01:56:36.339Z,57.30
2022-09-07T01:59:10.149Z,57.19
2022-09-07T02:01:45.226Z,57.12
2022-09-07T02:04:22.186Z,57.21
2022-09-07T02:06:53.654Z,57.19
2022-09-07T02:09:43.089Z,57.36
2022-09-07T02:12:31.025Z,57.32
2022-09-07T02:15:11.433Z,57.54
2022-09-07T02:17:48.542Z,57.30
2022-09-07T02:20:31.491Z,57.51
2022-09-07T02:23:06.607Z,57.75
2022-09-07T02:26:00.471Z,57.64
2022-09-07T02:28:33.269Z,57.79
2022-09-07T02:31:02.110Z,57.81
2022-09-07T02:33:31.046Z,57.88
2022-09-07T02:36:00.561Z,57.74
2022-09-07T02:38:28.589Z,57.68
2022-09-07T02:41:00.012Z,57.80
2022-09-07T02:43:31.060Z,57.89
2022-09-07T02:46:23.072Z,57.57
2022-09-07T02:49:32.437Z,57.98
2022-09-07T02:52:31.350Z,58.04
2022-09-07T02:55:18.272Z,57.76
2022-09-07T02:58:17.779Z,57.96
2022-09-07T03:00:57.943Z,58.05
2022-09-07T03:04:04.161Z,58.21
2022-09-07T03:06:41.093Z,58.06
2022-09-07T03:09:16.809Z,58.20
2022-09-07T03:11:45.750Z,58.12
2022-09-07T03:14:19.415Z,58.29
2022-09-07T03:16:50.581Z,58.46
2022-09-07T03:19:18.507Z,58.27
2022-09-07T03:21:46.475Z,58.29
2022-09-07T03:24:14.364Z,58.35
2022-09-07T03:26:46.428Z,58.36
2022-09-07T03:29:15.307Z,58.14
2022-09-07T03:31:43.216Z,58.15
2022-09-07T03:34:11.762Z,58.14
2022-09-07T03:36:40.834Z,58.41
2022-09-07T03:39:12.216Z,58.28
2022-09-07T03:41:40.694Z,58.46
2022-09-07T03:44:08.817Z,58.40
2022-09-07T03:46:36.677Z,58.53
2022-09-07T03:49:04.463Z,58.55
2022-09-07T03:51:32.289Z,58.61
2022-09-07T03:54:00.571Z,58.61
2022-09-07T03:56:29.622Z,58.75
2022-09-07T03:58:58.363Z,58.58
2022-09-07T04:01:27.324Z,58.61
2022-09-07T04:04:02.136Z,58.61
2022-09-07T04:06:32.063Z,58.62
2022-09-07T04:09:02.586Z,58.79
2022-09-07T04:11:32.903Z,58.73
2022-09-07T04:14:01.215Z,58.66
2022-09-07T04:16:31.434Z,58.88
2022-09-07T04:18:59.710Z,58.76
2022-09-07T04:21:29.281Z,58.89
2022-09-07T04:23:58.049Z,59.02
2022-09-07T04:26:29.690Z,58.95
2022-09-07T04:28:58.800Z,58.94
2022-09-07T04:31:27.751Z,58.94
2022-09-07T04:33:56.742Z,58.95
2022-09-07T04:36:28.337Z,59.15
2022-09-07T04:39:02.225Z,58.95
2022-09-07T04:41:31.615Z,59.03
2022-09-07T04:44:05.162Z,58.88
2022-09-07T04:46:35.400Z,58.76
2022-09-07T04:49:06.904Z,58.73
2022-09-07T04:51:35.849Z,58.79
2022-09-07T04:54:05.020Z,58.76
2022-09-07T04:56:34.049Z,58.71
2022-09-07T04:59:03.168Z,58.94
2022-09-07T05:01:31.201Z,58.74
2022-09-07T05:04:01.298Z,58.99
2022-09-07T05:06:29.808Z,58.85
2022-09-07T05:08:59.360Z,59.02
2022-09-07T05:11:29.529Z,58.88
2022-09-07T05:14:00.531Z,58.97
2022-09-07T05:16:29.702Z,59.06
2022-09-07T05:19:01.674Z,59.11
2022-09-07T05:21:32.245Z,58.97
2022-09-07T05:24:01.792Z,58.73
2022-09-07T05:26:33.413Z,58.74
2022-09-07T05:31:54.950Z,58.70
2022-09-07T05:36:54.404Z,58.67
2022-09-07T05:39:22.242Z,58.91
2022-09-07T05:41:50.108Z,58.87
2022-09-07T05:47:05.989Z,59.06
2022-09-07T05:49:34.160Z,58.89
2022-09-07T05:52:02.341Z,58.87
2022-09-07T05:54:30.150Z,59.03
2022-09-07T05:56:58.007Z,59.20
2022-09-07T05:59:25.839Z,59.12
2022-09-07T06:01:53.913Z,59.16
2022-09-07T06:04:22.932Z,59.26
2022-09-07T06:07:20.083Z,59.19
2022-09-07T06:12:28.486Z,59.37
2022-09-07T06:14:56.325Z,59.34
2022-09-07T06:17:24.234Z,59.48
2022-09-07T06:19:52.310Z,59.52
2022-09-07T06:22:20.091Z,59.36
2022-09-07T06:24:49.012Z,59.39
2022-09-07T06:27:16.889Z,59.19
2022-09-07T06:29:45.939Z,59.16
2022-09-07T06:35:02.182Z,59.25
2022-09-07T06:37:31.839Z,59.41
2022-09-07T06:39:59.994Z,59.21
2022-09-07T06:42:28.043Z,59.25
2022-09-07T06:44:55.970Z,59.36
2022-09-07T06:47:25.006Z,59.32
2022-09-07T06:49:55.029Z,59.27
2022-09-07T06:52:23.487Z,59.33
2022-09-07T06:54:59.886Z,59.21
2022-09-07T06:57:28.170Z,59.09
2022-09-07T06:59:56.172Z,59.22
2022-09-07T07:02:26.306Z,59.00
2022-09-07T07:04:54.976Z,59.02
2022-09-07T07:07:24.166Z,58.98
2022-09-07T07:09:52.055Z,58.87
2022-09-07T07:14:47.257Z,58.95
2022-09-07T07:17:15.503Z,58.99
2022-09-07T07:19:45.313Z,58.96
2022-09-07T07:22:36.090Z,58.87
2022-09-07T07:25:02.195Z,58.94
2022-09-07T07:27:32.597Z,58.66
2022-09-07T07:30:01.457Z,58.77
2022-09-07T07:32:31.347Z,58.76
2022-09-07T07:34:59.179Z,58.66
2022-09-07T07:37:28.403Z,58.93
2022-09-07T07:42:45.561Z,58.91
2022-09-07T07:48:04.155Z,59.07
2022-09-07T07:50:32.875Z,58.94
2022-09-07T07:55:50.276Z,58.89
2022-09-07T07:58:29.701Z,58.88
2022-09-07T08:01:12.785Z,58.66
2022-09-07T08:03:44.107Z,58.56
2022-09-07T08:06:14.424Z,58.66
2022-09-07T08:08:43.336Z,58.84
2022-09-07T08:11:17.815Z,58.69
2022-09-07T08:13:49.713Z,58.70
2022-09-07T08:16:18.465Z,58.60
2022-09-07T08:18:47.210Z,58.47
2022-09-07T08:21:17.367Z,58.43
2022-09-07T08:23:45.340Z,58.23
2022-09-07T08:26:14.688Z,58.13
2022-09-07T08:28:46.859Z,58.20
2022-09-07T08:31:17.122Z,58.15
2022-09-07T08:33:45.837Z,58.19
2022-09-07T08:36:17.908Z,58.09
2022-09-07T08:38:47.143Z,58.01
2022-09-07T08:41:40.800Z,57.98
2022-09-07T08:44:19.685Z,58.04
2022-09-07T08:47:25.802Z,57.95
2022-09-07T08:50:17.968Z,57.85
2022-09-07T08:53:01.552Z,57.86
2022-09-07T08:55:46.925Z,57.74
2022-09-07T08:58:48.085Z,57.58
2022-09-07T09:01:34.618Z,57.48
2022-09-07T09:04:19.553Z,57.37
2022-09-07T09:07:10.355Z,57.47
2022-09-07T09:10:13.048Z,57.64
2022-09-07T09:13:10.106Z,57.41
2022-09-07T09:15:52.519Z,57.21
2022-09-07T09:18:27.600Z,57.06
2022-09-07T09:20:57.304Z,57.03
2022-09-07T09:23:28.681Z,57.01
2022-09-07T09:26:01.555Z,56.97
2022-09-07T09:28:31.838Z,56.96
2022-09-07T09:31:00.958Z,56.77
2022-09-07T09:33:29.135Z,56.71
2022-09-07T09:35:59.962Z,56.61
2022-09-07T09:38:36.560Z,56.47
2022-09-07T09:41:31.974Z,56.40
2022-09-07T09:44:00.505Z,56.46
2022-09-07T09:46:34.360Z,56.39
2022-09-07T09:49:16.037Z,56.44
2022-09-07T09:54:48.773Z,56.20
2022-09-07T09:57:18.865Z,56.19
2022-09-07T10:00:07.034Z,56.08
2022-09-07T10:05:37.314Z,55.91
2022-09-07T10:08:26.826Z,56.17
2022-09-07T10:11:08.335Z,56.04
2022-09-07T10:13:54.983Z,56.03
2022-09-07T10:16:40.549Z,55.84
2022-09-07T10:19:32.764Z,55.86
2022-09-07T10:22:35.025Z,55.73
2022-09-07T10:25:42.088Z,56.00
2022-09-07T10:28:19.498Z,55.66
2022-09-07T10:30:59.939Z,55.71
2022-09-07T10:33:36.490Z,55.49
2022-09-07T10:36:44.370Z,55.49
2022-09-07T10:39:19.301Z,55.44
2022-09-07T10:42:03.299Z,55.62
2022-09-07T10:45:01.141Z,55.52
2022-09-07T10:47:57.710Z,55.24
2022-09-07T10:50:50.325Z,55.14
2022-09-07T10:57:25.163Z,54.82
2022-09-07T11:00:08.358Z,54.75
2022-09-07T11:03:28.159Z,54.29
2022-09-07T11:06:16.734Z,54.08
2022-09-07T11:09:21.299Z,54.14
2022-09-07T11:12:05.586Z,54.15
2022-09-07T11:14:42.990Z,54.09
2022-09-07T11:17:41.695Z,53.87
2022-09-07T11:20:44.799Z,53.77
2022-09-07T11:23:20.947Z,53.60
2022-09-07T11:26:17.771Z,53.70
2022-09-07T11:31:51.929Z,53.72
2022-09-07T11:34:32.114Z,53.51
2022-09-07T11:37:32.302Z,53.60
2022-09-07T11:40:30.922Z,53.50
2022-09-07T11:43:22.072Z,53.30
2022-09-07T11:45:58.944Z,53.48
2022-09-07T11:48:51.865Z,53.36
2022-09-07T11:51:37.762Z,53.07
2022-09-07T11:54:46.626Z,53.12
2022-09-07T11:57:27.564Z,52.78
2022-09-07T12:00:11.097Z,53.02
2022-09-07T12:02:59.743Z,52.93
2022-09-07T12:05:49.221Z,52.69
2022-09-07T12:08:23.266Z,52.55
2022-09-07T12:11:32.966Z,52.63
2022-09-07T12:14:25.363Z,52.38
2022-09-07T12:16:59.297Z,52.58
2022-09-07T12:19:28.633Z,52.28
2022-09-07T12:21:59.702Z,52.24
2022-09-07T12:24:44.698Z,52.01
2022-09-07T12:27:22.141Z,51.80
2022-09-07T12:30:11.172Z,51.60
2022-09-07T12:32:55.428Z,51.68
2022-09-07T12:35:34.715Z,51.69
2022-09-07T12:38:32.395Z,51.62
2022-09-07T12:41:20.665Z,51.51
2022-09-07T12:43:48.786Z,51.45
2022-09-07T12:46:38.041Z,51.29
2022-09-07T12:49:21.925Z,51.01
2022-09-07T12:52:31.538Z,51.01
2022-09-07T12:55:27.200Z,50.58
2022-09-07T12:58:22.942Z,50.67
2022-09-07T13:01:07.214Z,50.55
2022-09-07T13:04:09.810Z,50.55
2022-09-07T13:07:07.027Z,50.58
2022-09-07T13:09:42.639Z,50.15
2022-09-07T13:12:56.811Z,50.14
2022-09-07T13:15:49.076Z,50.25
2022-09-07T13:18:47.758Z,50.05
2022-09-07T13:21:18.712Z,50.00
2022-09-07T13:27:44.897Z,49.84
2022-09-07T13:30:16.710Z,49.75
2022-09-07T13:35:33.944Z,49.67
2022-09-07T13:38:03.807Z,49.77
2022-09-07T13:40:39.472Z,49.28
2022-09-07T13:43:23.904Z,49.08
2022-09-07T13:46:03.551Z,49.21
2022-09-07T13:48:57.994Z,49.12
2022-09-07T13:51:49.403Z,49.05
2022-09-07T13:54:40.068Z,48.89
2022-09-07T13:57:22.421Z,48.76
2022-09-07T13:59:51.769Z,48.71
2022-09-07T14:02:36.260Z,48.64
2022-09-07T14:05:06.687Z,48.51
2022-09-07T14:07:45.617Z,48.28
2022-09-07T14:10:25.163Z,48.15
2022-09-07T14:13:08.096Z,47.80
2022-09-07T14:15:41.707Z,47.55
2022-09-07T14:18:22.434Z,47.53
2022-09-07T14:20:52.516Z,47.48
2022-09-07T14:23:29.875Z,47.36
2022-09-07T14:26:23.268Z,47.10
2022-09-07T14:28:54.297Z,47.16
2022-09-07T14:31:24.563Z,47.32
2022-09-07T14:33:56.899Z,47.01
2022-09-07T14:36:44.752Z,47.17
2022-09-07T14:39:16.238Z,47.38
2022-09-07T14:41:44.902Z,47.38
2022-09-07T14:44:38.736Z,47.36
2022-09-07T14:47:19.672Z,47.26
2022-09-07T14:49:57.369Z,47.24
2022-09-07T14:52:43.067Z,47.10
2022-09-07T14:55:41.863Z,47.20
2022-09-07T14:58:13.374Z,47.11
2022-09-07T15:01:37.137Z,47.33
2022-09-07T15:03:56.283Z,47.08
2022-09-07T15:09:37.023Z,47.13
2022-09-07T15:12:17.686Z,47.18
2022-09-07T15:14:45.864Z,46.86
2022-09-07T15:17:48.489Z,46.45
2022-09-07T15:20:37.304Z,45.07
2022-09-07T15:23:10.645Z,44.89
2022-09-07T15:25:40.735Z,44.55
2022-09-07T15:34:15.754Z,44.68
2022-09-07T15:36:48.726Z,44.92
2022-09-07T15:39:19.353Z,44.64
2022-09-07T15:41:47.886Z,44.81
2022-09-07T15:44:19.437Z,44.89
2022-09-07T15:49:40.097Z,44.85
2022-09-07T15:52:10.035Z,45.11
2022-09-07T15:54:39.843Z,44.98
2022-09-07T15:59:57.303Z,44.60
2022-09-07T16:05:13.982Z,43.95
2022-09-07T16:10:31.738Z,42.14
2022-09-07T16:13:01.155Z,41.45
2022-09-07T16:15:31.284Z,40.87
2022-09-07T16:17:59.132Z,40.37
2022-09-07T16:20:32.417Z,39.70
2022-09-07T16:23:16.934Z,39.13
2022-09-07T16:25:59.102Z,38.58
2022-09-07T16:28:28.245Z,38.22
2022-09-07T16:30:58.497Z,38.47
2022-09-07T16:33:34.421Z,38.66
2022-09-07T16:36:07.343Z,38.89
2022-09-07T16:38:51.120Z,39.15
2022-09-07T16:41:23.048Z,39.41
2022-09-07T16:43:50.858Z,39.56
2022-09-07T16:46:22.234Z,39.82
2022-09-07T16:48:53.935Z,39.99
2022-09-07T16:51:25.051Z,40.20
2022-09-07T16:53:56.626Z,40.42
2022-09-07T16:56:27.063Z,40.56
2022-09-07T16:59:01.078Z,40.88
2022-09-07T17:01:32.680Z,41.01
2022-09-07T17:04:04.355Z,41.13
2022-09-07T17:06:34.631Z,41.45
2022-09-07T17:09:02.467Z,41.52
2022-09-07T17:11:33.825Z,41.57
2022-09-07T17:14:02.325Z,41.64
2022-09-07T17:16:33.276Z,41.83
2022-09-07T17:21:52.934Z,42.25
2022-09-07T17:24:21.605Z,42.40
2022-09-07T17:26:49.864Z,42.51
2022-09-07T17:29:18.409Z,42.70
2022-09-07T17:34:34.251Z,42.94
2022-09-07T17:37:02.051Z,43.17
2022-09-07T17:39:37.153Z,43.15
2022-09-07T17:42:10.464Z,43.47
2022-09-07T17:44:39.659Z,43.77
2022-09-07T17:47:07.525Z,43.76
2022-09-07T17:49:35.975Z,44.07
2022-09-07T17:52:04.201Z,44.10
2022-09-07T17:54:32.997Z,44.29
2022-09-07T17:57:00.858Z,44.37
2022-09-07T18:02:17.109Z,44.86
2022-09-07T18:04:45.659Z,44.91
2022-09-07T18:07:13.495Z,45.10
2022-09-07T18:09:41.430Z,45.13
2022-09-07T18:12:09.739Z,45.20
2022-09-07T18:14:37.496Z,45.45
2022-09-07T18:17:06.036Z,45.65
2022-09-07T18:19:36.470Z,45.76
2022-09-07T18:22:05.288Z,45.87
2022-09-07T18:24:36.898Z,46.01
2022-09-07T18:27:05.746Z,46.28
2022-09-07T18:29:34.490Z,46.41
2022-09-07T18:32:08.410Z,46.55
2022-09-07T18:34:41.138Z,46.83
2022-09-07T18:37:12.434Z,46.86
2022-09-07T18:39:41.187Z,46.88
2022-09-07T18:42:09.826Z,46.91
2022-09-07T18:47:29.192Z,47.38
2022-09-07T18:49:58.922Z,47.36
2022-09-07T18:55:16.528Z,47.69
2022-09-07T18:57:44.947Z,47.82
2022-09-07T19:00:14.258Z,48.21
2022-09-07T19:02:42.664Z,48.23
2022-09-07T19:07:59.817Z,48.67
2022-09-07T19:10:28.204Z,48.73
2022-09-07T19:12:56.430Z,48.75
2022-09-07T19:15:24.659Z,49.04
2022-09-07T19:17:52.525Z,49.13
2022-09-07T19:20:20.362Z,49.11
2022-09-07T19:22:49.227Z,49.48
2022-09-07T19:25:19.778Z,49.63
2022-09-07T19:27:47.972Z,49.92
2022-09-07T19:30:17.548Z,50.09
2022-09-07T19:32:46.729Z,50.34
2022-09-07T19:35:14.531Z,50.21
2022-09-07T19:37:43.219Z,50.40
2022-09-07T19:40:17.117Z,50.57
2022-09-07T19:42:46.926Z,50.58
2022-09-07T19:45:16.006Z,50.80
2022-09-07T19:47:44.955Z,50.95
2022-09-07T19:50:12.776Z,50.91
2022-09-07T19:52:40.653Z,51.21
2022-09-07T19:55:09.257Z,51.28
2022-09-07T19:57:37.057Z,51.27
2022-09-07T20:00:07.283Z,51.35
2022-09-07T20:02:40.367Z,51.36
2022-09-07T20:05:08.574Z,51.56
2022-09-07T20:07:36.416Z,51.71
2022-09-07T20:10:04.423Z,52.05
2022-09-07T20:12:33.147Z,52.01
2022-09-07T20:15:01.451Z,52.23
2022-09-07T20:17:34.447Z,52.36
2022-09-07T20:20:05.186Z,52.45
2022-09-07T20:22:34.456Z,52.47
2022-09-07T20:25:02.196Z,52.42
2022-09-07T20:27:30.854Z,52.69
2022-09-07T20:29:58.746Z,52.62
2022-09-07T20:32:28.407Z,52.67
2022-09-07T20:34:56.490Z,52.74
2022-09-07T20:37:29.213Z,52.93
2022-09-07T20:40:06.664Z,52.99
2022-09-07T20:42:34.986Z,53.33
2022-09-07T20:45:04.377Z,53.28
2022-09-07T20:47:32.746Z,53.26
2022-09-07T20:50:00.587Z,53.52
2022-09-07T20:52:28.451Z,53.65
2022-09-07T20:54:56.425Z,53.68
2022-09-07T20:57:24.874Z,53.67
2022-09-07T20:59:53.044Z,53.89
2022-09-07T21:02:20.824Z,53.98
2022-09-07T21:04:49.090Z,54.00
2022-09-07T21:07:16.963Z,54.10
2022-09-07T21:09:44.787Z,54.30
2022-09-07T21:12:12.611Z,54.41
2022-09-07T21:14:40.543Z,54.62
2022-09-07T21:17:08.753Z,54.69
2022-09-07T21:19:37.234Z,54.81
2022-09-07T21:22:05.384Z,54.85
2022-09-07T21:24:33.174Z,54.87
2022-09-07T21:27:00.969Z,54.95
2022-09-07T21:29:28.777Z,54.97
2022-09-07T21:31:57.485Z,54.96
2022-09-07T21:34:25.614Z,55.14
2022-09-07T21:36:53.384Z,55.25
2022-09-07T21:39:21.661Z,55.31
2022-09-07T21:41:50.364Z,55.48
2022-09-07T21:44:18.407Z,55.49
2022-09-07T21:46:46.347Z,55.51
2022-09-07T21:49:14.219Z,55.50
2022-09-07T21:51:42.223Z,55.56
2022-09-07T21:54:10.444Z,55.71
2022-09-07T21:56:43.105Z,55.67
2022-09-07T21:59:14.036Z,55.75
2022-09-07T22:01:41.941Z,55.71
2022-09-07T22:04:10.120Z,55.84
2022-09-07T22:06:38.638Z,55.79
2022-09-07T22:09:07.387Z,55.88
2022-09-07T22:11:35.510Z,55.96
2022-09-07T22:14:05.394Z,56.08
2022-09-07T22:16:35.876Z,55.99
2022-09-07T22:19:05.544Z,56.04
2022-09-07T22:21:34.061Z,56.15
2022-09-07T22:24:05.385Z,56.02
2022-09-07T22:26:37.700Z,56.22
2022-09-07T22:29:07.835Z,56.28
2022-09-07T22:31:37.453Z,56.40
2022-09-07T22:34:10.409Z,56.49
2022-09-07T22:36:40.902Z,56.51
2022-09-07T22:39:15.977Z,56.59
2022-09-07T22:41:46.287Z,56.73
2022-09-07T22:44:16.400Z,56.68
2022-09-07T22:46:46.167Z,56.77
2022-09-07T22:49:16.262Z,56.82
2022-09-07T22:51:44.619Z,56.92
2022-09-07T22:54:12.877Z,57.08
2022-09-07T22:56:41.069Z,57.26
2022-09-07T22:59:10.533Z,57.26
2022-09-07T23:01:39.155Z,57.41
2022-09-07T23:04:08.744Z,57.38
2022-09-07T23:06:39.376Z,57.49
2022-09-07T23:09:13.240Z,57.41
2022-09-07T23:11:41.601Z,57.55
2022-09-07T23:14:15.871Z,57.43
2022-09-07T23:16:44.907Z,57.43
2022-09-07T23:19:14.355Z,57.58
2022-09-07T23:21:42.368Z,57.77
2022-09-07T23:24:14.159Z,57.87
2022-09-07T23:26:43.074Z,57.81
2022-09-07T23:29:13.015Z,57.92
2022-09-07T23:31:41.786Z,58.02
2022-09-07T23:34:09.839Z,58.09
2022-09-07T23:36:37.768Z,58.04
2022-09-07T23:39:05.869Z,58.00
2022-09-07T23:41:33.646Z,58.04
2022-09-07T23:44:01.667Z,58.14
2022-09-07T23:46:29.568Z,58.22
2022-09-07T23:48:57.404Z,58.40
2022-09-07T23:51:25.723Z,58.39
2022-09-07T23:53:53.869Z,58.40
2022-09-07T23:56:24.619Z,58.54
2022-09-07T23:58:52.522Z,58.63
